Time;durP1;ratioP1;P1;durP2;ratioP2;P2;SDS_P1;SDS_P2;PMS_P1;PMS_P2;Temp;Humidity;BMP_temperature;BMP_pressure;BME280_temperature;BME280_humidity;BME280_pressure;Samples;Min_cycle;Max_cycle;Signal;HPM_P1;HPM_P2
2023/12/23 00:02:23;;;;;;;13.80;12.80;;;;;;;5.15;75.06;91415.72;5058245;28;20280;-73
2023/12/23 00:04:48;;;;;;;13.60;12.70;;;;;;;4.91;75.03;91390.63;5061634;28;20952;-75
2023/12/23 00:07:14;;;;;;;13.67;12.53;;;;;;;5.01;75.51;91407.09;5066253;28;20239;-74
2023/12/23 00:09:41;;;;;;;13.30;12.40;;;;;;;4.55;78.30;91399.75;5065954;28;20178;-73
2023/12/23 00:12:09;;;;;;;14.03;13.03;;;;;;;4.62;78.38;91402.78;5060178;28;20288;-73
2023/12/23 00:14:35;;;;;;;12.97;11.97;;;;;;;4.55;78.76;91381.66;5073984;28;20181;-74
2023/12/23 00:17:01;;;;;;;12.90;11.97;;;;;;;4.63;79.08;91391.41;5073161;28;20224;-74
2023/12/23 00:19:26;;;;;;;12.73;11.70;;;;;;;4.62;78.56;91364.00;5069321;28;20189;-73
2023/12/23 00:21:51;;;;;;;12.67;11.77;;;;;;;4.64;79.24;91356.75;5061965;28;20233;-74
2023/12/23 00:24:17;;;;;;;13.37;12.17;;;;;;;4.43;79.17;91355.41;5057141;28;20198;-73
2023/12/23 00:26:42;;;;;;;13.63;12.50;;;;;;;4.50;79.62;91357.66;5078729;28;20224;-74
2023/12/23 00:29:08;;;;;;;12.40;11.60;;;;;;;3.95;81.36;91302.09;5071622;28;20211;-73
2023/12/23 00:31:33;;;;;;;13.20;12.30;;;;;;;4.23;80.76;91347.84;5076044;28;20260;-73
2023/12/23 00:33:58;;;;;;;12.77;11.93;;;;;;;4.06;80.57;91360.34;5067074;28;20185;-73
2023/12/23 00:36:24;;;;;;;12.10;11.50;;;;;;;4.10;80.08;91363.16;5067844;28;20199;-73
2023/12/23 00:38:49;;;;;;;12.37;11.47;;;;;;;4.37;77.86;91340.22;5064248;28;20188;-75
2023/12/23 00:41:14;;;;;;;12.10;11.33;;;;;;;4.27;78.17;91359.16;5060004;28;20278;-73
2023/12/23 00:43:40;;;;;;;13.33;12.33;;;;;;;4.36;76.57;91349.78;5054471;28;20221;-74
2023/12/23 00:46:07;;;;;;;13.93;12.93;;;;;;;4.73;74.31;91372.47;5061330;28;20202;-73
2023/12/23 00:48:33;;;;;;;11.93;11.00;;;;;;;4.12;77.32;91315.38;5067485;28;20259;-73
2023/12/23 00:50:58;;;;;;;11.70;10.93;;;;;;;4.27;78.21;91346.25;5061007;28;20233;-73
2023/12/23 00:53:25;;;;;;;12.83;12.00;;;;;;;3.88;78.76;91322.28;5058567;28;20309;-73
2023/12/23 00:55:51;;;;;;;11.70;10.80;;;;;;;4.05;79.65;91338.16;5053138;28;20205;-73
2023/12/23 00:58:17;;;;;;;11.47;10.77;;;;;;;4.39;78.43;91341.47;5068197;28;20209;-73
2023/12/23 01:00:42;;;;;;;12.70;11.57;;;;;;;4.67;76.61;91351.03;5068057;28;20185;-73
2023/12/23 01:03:07;;;;;;;10.90;10.30;;;;;;;4.62;76.80;91327.06;5067989;28;20284;-74
2023/12/23 01:05:32;;;;;;;12.77;11.90;;;;;;;4.19;79.04;91315.84;5069986;28;20221;-73
2023/12/23 01:07:58;;;;;;;13.03;12.33;;;;;;;4.08;80.27;91296.28;5067702;28;20934;-73
2023/12/23 01:10:26;;;;;;;11.77;10.97;;;;;;;4.42;79.80;91322.84;5069450;28;20186;-73
2023/12/23 01:12:51;;;;;;;12.33;11.53;;;;;;;4.26;80.71;91342.13;5068459;28;20225;-74
2023/12/23 01:15:17;;;;;;;15.43;13.30;;;;;;;3.94;80.32;91323.78;5068698;28;20209;-73
2023/12/23 01:17:42;;;;;;;13.13;12.20;;;;;;;4.24;81.04;91325.34;5065132;28;20221;-73
2023/12/23 01:20:08;;;;;;;12.33;11.23;;;;;;;4.25;80.42;91319.16;5058370;28;20213;-74
2023/12/23 01:22:34;;;;;;;10.93;10.33;;;;;;;4.12;80.90;91314.59;5068996;28;20229;-74
2023/12/23 01:24:59;;;;;;;11.93;11.10;;;;;;;4.04;80.01;91321.13;5069189;28;20201;-73
2023/12/23 01:27:24;;;;;;;10.33;9.83;;;;;;;5.11;73.05;91278.44;5056590;28;20234;-73
2023/12/23 01:29:50;;;;;;;10.20;9.70;;;;;;;5.34;71.96;91250.97;5068268;28;20216;-73
2023/12/23 01:32:16;;;;;;;10.23;9.83;;;;;;;5.37;73.38;91276.28;5070592;28;20225;-74
2023/12/23 01:34:42;;;;;;;10.10;9.50;;;;;;;5.22;73.25;91273.88;5072553;28;20212;-72
2023/12/23 01:37:08;;;;;;;10.57;9.97;;;;;;;5.22;73.95;91258.38;5072656;28;20223;-73
2023/12/23 01:39:33;;;;;;;9.23;8.93;;;;;;;5.70;70.58;91249.41;5071762;28;20205;-73
2023/12/23 01:41:58;;;;;;;8.83;8.53;;;;;;;6.31;67.07;91208.53;5062982;28;20224;-73
2023/12/23 01:44:24;;;;;;;9.93;9.53;;;;;;;6.63;66.50;91236.97;5067636;28;20185;-75
2023/12/23 01:46:52;;;;;;;10.07;9.67;;;;;;;6.52;66.31;91199.34;5069980;28;20295;-73
2023/12/23 01:49:18;;;;;;;9.80;9.50;;;;;;;6.69;63.90;91193.59;5070806;28;20237;-73
2023/12/23 01:51:43;;;;;;;9.13;8.83;;;;;;;6.71;65.86;91222.59;5072285;28;20232;-73
2023/12/23 01:54:09;;;;;;;9.23;8.93;;;;;;;6.91;63.10;91212.56;5075540;28;20211;-73
2023/12/23 01:56:35;;;;;;;9.03;8.73;;;;;;;6.88;61.76;91174.25;5072432;28;20189;-73
2023/12/23 01:59:03;;;;;;;9.50;9.13;;;;;;;7.37;62.14;91241.72;5062831;28;20184;-73
2023/12/23 02:01:31;;;;;;;9.67;9.30;;;;;;;7.26;60.93;91232.63;5063968;28;20216;-73
2023/12/23 02:03:56;;;;;;;9.50;9.10;;;;;;;7.17;60.44;91205.81;5056580;28;20312;-73
2023/12/23 02:06:22;;;;;;;9.93;9.53;;;;;;;7.19;59.85;91211.47;5072520;28;20213;-74
2023/12/23 02:08:47;;;;;;;9.27;8.87;;;;;;;7.08;61.99;91236.09;5064435;28;20181;-72
2023/12/23 02:11:37;;;;;;;9.20;8.80;;;;;;;7.03;62.31;91219.88;5071667;28;20182;-73
2023/12/23 02:14:24;;;;;;;9.47;9.10;;;;;;;7.12;61.50;91237.06;5066633;28;20212;-73
2023/12/23 02:16:50;;;;;;;9.40;9.00;;;;;;;6.91;62.28;91251.47;5060296;28;21093;-72
2023/12/23 02:19:15;;;;;;;10.30;9.90;;;;;;;7.00;63.65;91269.75;5072245;28;20186;-75
2023/12/23 02:21:41;;;;;;;11.20;10.47;;;;;;;6.73;64.64;91241.97;5067861;28;20257;-73
2023/12/23 02:24:06;;;;;;;10.47;9.97;;;;;;;5.81;69.67;91269.69;5051854;28;20178;-72
2023/12/23 02:26:33;;;;;;;12.67;11.93;;;;;;;6.03;69.74;91276.91;5051180;28;20240;-71
2023/12/23 02:29:01;;;;;;;11.33;10.73;;;;;;;5.75;71.07;91283.00;5064586;28;20174;-72
2023/12/23 02:31:27;;;;;;;9.37;8.87;;;;;;;5.93;69.39;91217.50;5063911;28;20185;-72
2023/12/23 02:33:52;;;;;;;11.70;11.00;;;;;;;6.63;67.05;91257.72;5085053;28;20220;-72
2023/12/23 02:36:21;;;;;;;11.70;11.00;;;;;;;6.26;69.25;91252.69;5061949;28;20196;-72
2023/12/23 02:38:50;;;;;;;11.43;10.83;;;;;;;5.77;70.37;91229.13;5048403;28;20218;-72
2023/12/23 02:41:15;;;;;;;12.37;11.47;;;;;;;5.11;74.84;91231.09;5035123;28;20191;-72
2023/12/23 02:43:41;;;;;;;11.70;10.87;;;;;;;4.92;75.60;91224.09;5047260;28;20630;-71
2023/12/23 02:46:06;;;;;;;10.87;10.33;;;;;;;5.04;74.16;91225.50;5047942;28;20202;-71
2023/12/23 02:48:31;;;;;;;10.03;9.63;;;;;;;6.19;68.78;91201.25;5034888;28;20654;-71
2023/12/23 02:50:57;;;;;;;10.23;9.83;;;;;;;6.61;65.17;91186.47;5043379;28;20179;-71
2023/12/23 02:53:22;;;;;;;10.63;10.10;;;;;;;6.28;68.22;91194.34;5035284;28;20282;-72
2023/12/23 02:55:47;;;;;;;11.80;11.20;;;;;;;5.72;72.79;91154.13;5050580;28;20182;-72
2023/12/23 02:58:13;;;;;;;10.43;9.93;;;;;;;5.11;76.13;91177.56;5038394;28;20229;-72
2023/12/23 03:00:38;;;;;;;11.30;10.77;;;;;;;4.65;78.58;91202.47;5046791;28;20196;-72
2023/12/23 03:03:03;;;;;;;11.27;10.67;;;;;;;4.27;80.92;91170.63;5050957;28;20782;-73
2023/12/23 03:05:29;;;;;;;11.93;11.23;;;;;;;4.12;83.23;91194.03;5049539;28;20194;-72
2023/12/23 03:07:54;;;;;;;12.47;11.77;;;;;;;3.68;84.96;91244.22;5083322;28;20233;-71
2023/12/23 03:10:19;;;;;;;11.93;11.23;;;;;;;3.69;84.64;91225.91;5049868;28;20178;-72
2023/12/23 03:12:45;;;;;;;11.77;11.07;;;;;;;3.97;83.65;91235.47;5047057;28;20226;-71
2023/12/23 03:15:10;;;;;;;11.20;10.67;;;;;;;4.06;83.87;91228.66;5037201;28;20262;-72
2023/12/23 03:17:35;;;;;;;10.30;9.70;;;;;;;4.01;85.24;91184.84;5048502;28;20218;-71
2023/12/23 03:20:01;;;;;;;12.47;11.70;;;;;;;4.02;84.79;91258.66;5044952;28;20226;-72
2023/12/23 03:22:26;;;;;;;11.53;10.73;;;;;;;3.94;84.02;91175.88;5043313;28;21084;-72
2023/12/23 03:24:51;;;;;;;11.50;10.80;;;;;;;3.84;84.67;91223.22;5046968;28;20195;-71
2023/12/23 03:27:18;;;;;;;11.63;11.03;;;;;;;3.72;86.21;91203.97;5043239;28;20242;-71
2023/12/23 03:29:44;;;;;;;12.10;11.43;;;;;;;3.40;87.81;91247.53;5063874;28;20240;-72
2023/12/23 03:32:09;;;;;;;12.70;11.90;;;;;;;3.76;87.19;91231.53;5054652;28;20217;-72
2023/12/23 03:34:35;;;;;;;12.30;11.50;;;;;;;3.57;87.21;91202.25;5047200;28;20205;-70
2023/12/23 03:37:00;;;;;;;11.93;11.27;;;;;;;3.70;89.37;91226.69;5042940;28;20276;-72
2023/12/23 03:39:26;;;;;;;11.80;11.17;;;;;;;3.83;86.69;91242.28;5045587;28;20209;-71
2023/12/23 03:41:51;;;;;;;12.53;11.93;;;;;;;3.55;87.52;91227.56;5043567;28;20244;-72
2023/12/23 03:44:16;;;;;;;11.10;10.57;;;;;;;3.52;88.48;91209.28;5061198;28;20185;-71
2023/12/23 03:46:42;;;;;;;11.80;11.03;;;;;;;3.44;88.08;91184.06;5062546;28;20267;-72
2023/12/23 03:49:07;;;;;;;12.17;11.57;;;;;;;3.25;89.05;91163.34;5068559;28;20699;-72
2023/12/23 03:51:32;;;;;;;10.73;10.23;;;;;;;3.18;89.13;91180.91;5063860;28;20190;-74
2023/12/23 03:53:58;;;;;;;11.20;10.60;;;;;;;3.36;87.93;91157.06;5066116;28;20189;-71
2023/12/23 03:56:23;;;;;;;9.87;9.47;;;;;;;4.08;82.89;91190.44;5068569;28;20197;-71
2023/12/23 03:58:48;;;;;;;11.50;10.97;;;;;;;4.55;80.76;91202.59;5066791;28;20194;-71
2023/12/23 04:01:16;;;;;;;11.43;10.93;;;;;;;4.48;81.08;91164.16;5069653;28;20609;-71
2023/12/23 04:03:42;;;;;;;10.23;9.70;;;;;;;4.61;79.82;91166.06;5056253;28;20217;-71
2023/12/23 04:06:08;;;;;;;13.40;12.57;;;;;;;5.85;70.07;91181.91;5064249;28;20971;-71
2023/12/23 04:08:33;;;;;;;11.93;11.43;;;;;;;6.06;69.66;91149.41;5063263;28;20233;-69
2023/12/23 04:10:59;;;;;;;13.00;12.00;;;;;;;6.91;62.71;91165.13;5066286;28;20193;-71
2023/12/23 04:13:25;;;;;;;11.30;10.70;;;;;;;7.33;61.17;91178.47;5067683;28;20229;-71
2023/12/23 04:15:50;;;;;;;10.07;9.67;;;;;;;7.35;58.51;91139.25;5066732;28;20248;-70
2023/12/23 04:18:15;;;;;;;9.43;9.13;;;;;;;7.48;59.56;91165.16;5067244;28;20221;-71
2023/12/23 04:20:40;;;;;;;9.90;9.53;;;;;;;7.94;57.05;91188.22;5065664;28;20225;-70
2023/12/23 04:23:06;;;;;;;9.07;8.77;;;;;;;7.43;62.04;91206.81;5064804;28;20258;-71
2023/12/23 04:25:31;;;;;;;10.30;9.90;;;;;;;6.04;68.40;91240.34;5065030;28;20221;-71
2023/12/23 04:27:57;;;;;;;10.33;9.93;;;;;;;6.46;66.48;91247.91;5056515;28;20217;-71
2023/12/23 04:30:22;;;;;;;9.70;9.23;;;;;;;6.86;62.73;91222.28;5060450;28;20225;-69
2023/12/23 04:32:48;;;;;;;9.23;8.93;;;;;;;8.36;55.39;91192.91;5060956;28;20217;-70
2023/12/23 04:35:14;;;;;;;9.80;9.50;;;;;;;8.47;54.91;91201.25;5065795;28;20197;-70
2023/12/23 04:37:41;;;;;;;9.70;9.40;;;;;;;8.59;53.25;91194.38;5065269;28;20256;-72
2023/12/23 04:40:08;;;;;;;11.00;10.50;;;;;;;6.79;64.92;91172.63;5067610;28;20193;-70
2023/12/23 04:42:33;;;;;;;11.07;10.57;;;;;;;6.32;68.49;91171.19;5065671;28;20258;-71
2023/12/23 04:44:58;;;;;;;10.20;9.77;;;;;;;5.45;73.39;91174.75;5061898;28;20217;-71
2023/12/23 04:47:24;;;;;;;11.40;10.63;;;;;;;5.20;75.91;91239.78;5066993;28;20229;-70
2023/12/23 04:49:49;;;;;;;10.63;10.13;;;;;;;5.65;72.64;91200.31;5068472;28;20241;-70
2023/12/23 04:52:14;;;;;;;9.53;9.23;;;;;;;7.56;58.73;91158.50;5048821;28;20235;-70
2023/12/23 04:54:40;;;;;;;10.17;9.47;;;;;;;8.24;56.89;91139.94;5037589;28;20197;-70
2023/12/23 04:57:05;;;;;;;10.37;9.80;;;;;;;8.71;53.12;91160.78;5048367;28;20281;-70
2023/12/23 04:59:30;;;;;;;10.33;10.03;;;;;;;8.80;52.71;91163.38;5048775;28;20194;-71
2023/12/23 05:01:56;;;;;;;10.23;9.63;;;;;;;8.69;52.90;91191.53;5052951;28;20218;-70
2023/12/23 05:04:21;;;;;;;9.63;9.23;;;;;;;8.55;54.23;91253.28;5047536;28;20196;-70
2023/12/23 05:06:47;;;;;;;10.20;9.80;;;;;;;6.93;64.92;91262.34;5049878;28;20223;-70
2023/12/23 05:09:12;;;;;;;10.40;10.00;;;;;;;6.57;67.01;91273.66;5046397;28;20197;-71
2023/12/23 05:11:38;;;;;;;11.03;10.30;;;;;;;5.62;71.40;91304.41;5050161;28;21087;-71
2023/12/23 05:14:03;;;;;;;9.93;9.53;;;;;;;5.03;75.65;91260.94;5048597;28;20266;-72
2023/12/23 05:16:28;;;;;;;11.30;10.60;;;;;;;5.19;76.17;91212.38;5050919;28;20205;-73
2023/12/23 05:18:54;;;;;;;10.40;9.97;;;;;;;5.64;71.81;91230.59;5051148;28;20196;-72
2023/12/23 05:21:20;;;;;;;10.47;10.03;;;;;;;6.50;67.16;91235.16;5049389;28;20228;-73
2023/12/23 05:23:45;;;;;;;10.77;9.90;;;;;;;6.01;70.98;91251.28;5050842;28;20197;-72
2023/12/23 05:26:11;;;;;;;10.87;10.37;;;;;;;5.09;75.12;91305.63;5050110;28;20249;-72
2023/12/23 05:28:36;;;;;;;10.23;9.73;;;;;;;4.91;75.90;91261.34;5068171;28;20233;-72
2023/12/23 05:31:01;;;;;;;10.37;9.97;;;;;;;5.22;75.65;91279.84;5071698;28;20174;-73
2023/12/23 05:33:27;;;;;;;10.43;9.83;;;;;;;5.13;75.50;91257.47;5067795;28;20221;-72
2023/12/23 05:35:52;;;;;;;10.17;9.60;;;;;;;5.56;71.04;91243.41;5069666;28;20193;-72
2023/12/23 05:38:18;;;;;;;10.43;10.03;;;;;;;7.04;63.14;91279.25;5071219;28;20220;-73
2023/12/23 05:40:43;;;;;;;10.60;10.20;;;;;;;7.50;62.13;91240.91;5061059;28;20277;-72
2023/12/23 05:43:09;;;;;;;10.63;10.23;;;;;;;8.13;57.74;91238.94;5067293;28;20224;-72
2023/12/23 05:45:34;;;;;;;9.03;8.73;;;;;;;8.42;58.18;91266.38;5068146;28;20209;-71
2023/12/23 05:47:59;;;;;;;9.23;8.93;;;;;;;8.51;58.02;91246.38;5070252;28;20235;-73
2023/12/23 05:50:25;;;;;;;9.53;9.03;;;;;;;8.61;56.93;91220.88;5072198;28;20196;-72
2023/12/23 05:52:50;;;;;;;9.67;9.27;;;;;;;8.48;57.37;91241.78;5069340;28;20217;-73
2023/12/23 05:55:15;;;;;;;9.07;8.73;;;;;;;8.43;58.97;91241.91;5071015;28;20174;-73
2023/12/23 05:57:41;;;;;;;10.17;9.67;;;;;;;8.78;58.25;91248.81;5052457;28;20230;-72
2023/12/23 06:00:07;;;;;;;9.73;9.27;;;;;;;8.76;56.73;91256.91;5048967;28;20182;-72
2023/12/23 06:02:33;;;;;;;9.80;9.20;;;;;;;8.74;57.44;91271.28;5049911;28;20261;-72
2023/12/23 06:04:58;;;;;;;10.40;10.00;;;;;;;8.65;55.83;91244.44;5042486;28;20213;-72
2023/12/23 06:07:23;;;;;;;10.50;10.00;;;;;;;9.05;58.19;91259.00;5050188;28;20241;-72
2023/12/23 06:09:49;;;;;;;10.10;9.73;;;;;;;9.00;55.42;91277.34;5047078;28;20190;-71
2023/12/23 06:12:14;;;;;;;9.43;8.83;;;;;;;8.87;55.51;91291.97;5046549;28;20230;-73
2023/12/23 06:14:40;;;;;;;9.43;8.67;;;;;;;8.92;55.95;91285.91;5048853;28;20289;-72
2023/12/23 06:17:06;;;;;;;10.00;9.60;;;;;;;8.71;56.40;91284.88;5041103;28;20260;-73
2023/12/23 06:19:31;;;;;;;10.33;9.83;;;;;;;8.91;57.51;91292.94;5039558;28;20195;-72
2023/12/23 06:21:57;;;;;;;9.70;9.30;;;;;;;8.83;56.36;91298.09;5042739;28;20217;-73
2023/12/23 06:24:22;;;;;;;9.77;9.17;;;;;;;8.75;57.83;91289.19;5063118;28;20198;-74
2023/12/23 06:26:47;;;;;;;8.77;8.47;;;;;;;8.88;56.59;91297.97;5076157;28;20233;-73
2023/12/23 06:29:12;;;;;;;9.67;9.07;;;;;;;8.97;57.48;91293.56;5068083;28;20208;-71
2023/12/23 06:31:38;;;;;;;9.40;9.00;;;;;;;9.07;57.37;91277.69;5066728;28;20239;-72
2023/12/23 06:34:03;;;;;;;8.67;8.27;;;;;;;8.94;59.92;91294.16;5069588;28;20245;-71
2023/12/23 06:36:29;;;;;;;9.90;9.40;;;;;;;8.98;57.11;91295.09;5070978;28;20212;-71
2023/12/23 06:38:55;;;;;;;9.77;9.37;;;;;;;8.97;56.87;91285.75;5068887;28;20182;-72
2023/12/23 06:41:20;;;;;;;10.20;9.70;;;;;;;9.16;57.58;91278.47;5068468;28;20243;-73
2023/12/23 06:43:46;;;;;;;9.57;9.20;;;;;;;9.16;59.14;91262.84;5070095;28;20208;-73
2023/12/23 06:46:11;;;;;;;10.57;9.97;;;;;;;9.01;57.61;91239.84;5067472;28;20209;-72
2023/12/23 06:48:37;;;;;;;8.80;8.40;;;;;;;9.12;58.04;91233.31;5067152;28;20247;-72
2023/12/23 06:51:03;;;;;;;9.80;9.23;;;;;;;9.12;57.55;91280.16;5068287;28;20189;-78
2023/12/23 06:53:29;;;;;;;9.90;9.40;;;;;;;9.07;61.13;91278.47;5071132;28;20222;-79
2023/12/23 06:55:54;;;;;;;8.93;8.53;;;;;;;9.07;58.97;91325.31;5068064;28;20192;-79
2023/12/23 06:58:19;;;;;;;26.90;12.07;;;;;;;9.25;57.36;91311.28;5058650;28;20744;-81
2023/12/23 07:00:45;;;;;;;9.70;9.20;;;;;;;9.31;58.15;91320.50;5067595;28;20194;-76
2023/12/23 07:03:10;;;;;;;11.37;10.67;;;;;;;9.52;59.57;91307.69;5069186;28;20256;-76
2023/12/23 07:05:35;;;;;;;10.50;10.00;;;;;;;9.49;57.15;91306.44;5060134;28;20277;-76
2023/12/23 07:08:01;;;;;;;9.90;9.40;;;;;;;9.34;59.21;91313.91;5061488;28;20230;-75
2023/12/23 07:10:26;;;;;;;9.90;9.50;;;;;;;9.29;57.78;91298.44;5068266;28;20189;-77
2023/12/23 07:12:51;;;;;;;9.90;9.20;;;;;;;9.43;57.46;91330.34;5062372;28;20288;-77
2023/12/23 07:15:17;;;;;;;9.53;9.13;;;;;;;9.39;57.13;91285.13;5068953;28;20188;-76
2023/12/23 07:17:42;;;;;;;10.13;9.63;;;;;;;9.61;64.71;91303.25;5067932;28;20956;-78
2023/12/23 07:20:09;;;;;;;10.40;9.90;;;;;;;9.31;58.00;91330.13;5066121;28;20241;-73
2023/12/23 07:22:34;;;;;;;9.87;9.23;;;;;;;9.29;58.22;91311.47;5066808;28;20233;-76
2023/12/23 07:25:00;;;;;;;9.33;8.93;;;;;;;9.27;58.29;91310.97;5068339;28;20252;-76
2023/12/23 07:27:25;;;;;;;10.20;9.73;;;;;;;9.17;57.69;91296.41;5068721;28;20225;-74
2023/12/23 07:29:50;;;;;;;10.53;9.93;;;;;;;9.49;58.26;91331.72;5063140;28;20205;-76
2023/12/23 07:32:16;;;;;;;9.43;9.03;;;;;;;9.48;57.67;91322.38;5070539;28;20283;-77
2023/12/23 07:34:41;;;;;;;9.73;9.33;;;;;;;9.50;57.15;91344.47;5075361;28;20609;-76
2023/12/23 07:37:08;;;;;;;10.00;9.50;;;;;;;9.56;58.04;91332.03;5067575;28;20224;-76
2023/12/23 07:39:33;;;;;;;9.10;8.67;;;;;;;9.59;57.92;91345.25;5068791;28;20277;-75
2023/12/23 07:41:59;;;;;;;10.20;9.70;;;;;;;9.77;57.52;91351.28;5067303;28;20233;-74
2023/12/23 07:44:25;;;;;;;10.03;9.47;;;;;;;9.77;57.30;91339.00;5068903;28;20264;-77
2023/12/23 07:46:50;;;;;;;10.30;9.70;;;;;;;9.60;57.49;91320.72;5062536;28;20229;-76
2023/12/23 07:49:15;;;;;;;9.20;8.77;;;;;;;9.72;58.53;91307.09;5067389;28;20191;-77
2023/12/23 07:51:41;;;;;;;9.83;9.47;;;;;;;9.66;57.99;91318.75;5067812;28;20244;-78
2023/12/23 07:54:06;;;;;;;9.87;9.20;;;;;;;9.67;58.57;91297.59;5061884;28;20197;-78
2023/12/23 07:56:32;;;;;;;9.93;9.37;;;;;;;9.35;59.50;91355.25;5061200;28;20192;-76
2023/12/23 07:58:57;;;;;;;10.80;10.30;;;;;;;9.52;58.74;91346.75;5060423;28;20525;-77
2023/12/23 08:01:23;;;;;;;10.63;9.87;;;;;;;9.56;58.82;91363.31;5067758;28;20249;-81
2023/12/23 08:03:48;;;;;;;10.17;9.77;;;;;;;10.01;57.33;91358.69;5068281;28;20276;-72
2023/12/23 08:06:16;;;;;;;9.47;9.07;;;;;;;9.94;57.94;91353.91;5068579;28;20219;-78
2023/12/23 08:08:42;;;;;;;9.50;9.07;;;;;;;9.80;58.31;91380.06;5043051;28;20297;-76
2023/12/23 08:11:07;;;;;;;10.20;9.67;;;;;;;9.66;57.65;91370.88;5048507;28;20186;-71
2023/12/23 08:13:33;;;;;;;11.03;10.33;;;;;;;9.77;57.34;91406.00;5046077;28;21267;-71
2023/12/23 08:15:58;;;;;;;10.37;9.67;;;;;;;9.77;57.70;91417.16;5049213;28;20194;-71
2023/12/23 08:18:23;;;;;;;10.17;9.67;;;;;;;9.72;58.59;91382.69;5037953;28;20225;-72
2023/12/23 08:20:49;;;;;;;9.60;9.20;;;;;;;9.97;59.16;91409.88;5037818;28;20245;-71
2023/12/23 08:23:14;;;;;;;11.70;11.10;;;;;;;9.92;57.35;91439.44;5047387;28;20225;-70
2023/12/23 08:25:39;;;;;;;11.83;9.37;;;;;;;9.82;57.89;91476.25;5046173;28;20613;-71
2023/12/23 08:28:06;;;;;;;10.43;9.97;;;;;;;10.20;57.10;91451.22;5077840;28;20252;-72
2023/12/23 08:30:32;;;;;;;9.83;9.33;;;;;;;10.15;56.75;91453.22;5062332;28;20319;-74
2023/12/23 08:32:57;;;;;;;9.97;9.47;;;;;;;10.51;56.73;91436.22;5063130;28;20213;-78
2023/12/23 08:35:23;;;;;;;10.37;9.87;;;;;;;10.54;57.06;91440.81;5058674;28;20257;-74
2023/12/23 08:37:48;;;;;;;9.63;9.23;;;;;;;10.21;58.24;91457.22;5067125;28;20217;-74
2023/12/23 08:40:13;;;;;;;10.30;9.90;;;;;;;10.21;57.96;91452.75;5075415;28;20200;-74
2023/12/23 08:42:39;;;;;;;10.63;10.03;;;;;;;10.29;58.80;91525.03;5068792;28;20312;-75
2023/12/23 08:45:05;;;;;;;11.03;10.37;;;;;;;10.07;59.85;91519.88;5062982;28;20201;-75
2023/12/23 08:47:30;;;;;;;10.30;9.80;;;;;;;10.22;59.88;91511.66;5067505;28;20236;-75
2023/12/23 08:49:55;;;;;;;11.33;10.83;;;;;;;9.96;60.68;91513.38;5067440;28;20249;-74
2023/12/23 08:52:21;;;;;;;10.10;9.40;;;;;;;9.77;61.97;91534.44;5067450;28;20291;-75
2023/12/23 08:54:46;;;;;;;10.60;10.20;;;;;;;9.72;62.04;91526.78;5059372;28;20188;-74
2023/12/23 08:57:11;;;;;;;10.13;9.57;;;;;;;9.71;61.93;91522.63;5065516;28;20228;-75
2023/12/23 08:59:37;;;;;;;10.33;9.70;;;;;;;9.50;63.60;91536.44;5056862;28;20193;-75
2023/12/23 09:02:04;;;;;;;11.17;10.57;;;;;;;9.61;63.13;91516.91;5068535;28;20270;-74
2023/12/23 09:04:30;;;;;;;11.33;10.43;;;;;;;9.85;63.14;91579.09;5078987;28;20186;-75
2023/12/23 09:06:57;;;;;;;11.63;10.93;;;;;;;9.88;63.44;91587.13;5065242;28;20224;-75
2023/12/23 09:09:23;;;;;;;11.50;10.90;;;;;;;9.61;63.56;91595.06;5070554;28;20189;-75
2023/12/23 09:11:48;;;;;;;10.83;9.90;;;;;;;9.36;65.25;91586.00;5064779;28;20229;-74
2023/12/23 09:14:15;;;;;;;10.80;10.00;;;;;;;9.34;64.59;91574.31;5069097;28;20217;-74
2023/12/23 09:16:40;;;;;;;10.93;10.33;;;;;;;9.44;64.83;91581.91;5060090;28;20237;-74
2023/12/23 09:19:05;;;;;;;11.90;11.10;;;;;;;9.31;66.86;91587.94;5060735;28;20193;-75
2023/12/23 09:21:31;;;;;;;11.97;11.20;;;;;;;9.30;65.65;91583.81;5061848;28;20260;-74
2023/12/23 09:23:56;;;;;;;12.93;11.97;;;;;;;9.07;69.43;91598.66;5049247;28;20204;-73
2023/12/23 09:26:24;;;;;;;11.93;10.83;;;;;;;8.61;71.76;91594.66;5054177;28;20241;-74
2023/12/23 09:28:52;;;;;;;12.53;11.63;;;;;;;8.54;72.23;91576.88;5063641;28;20884;-75
2023/12/23 09:31:18;;;;;;;11.70;10.73;;;;;;;8.58;74.77;91623.84;5057953;28;20205;-74
2023/12/23 09:33:43;;;;;;;11.33;10.50;;;;;;;8.57;75.11;91622.31;5047889;28;20230;-74
2023/12/23 09:36:08;;;;;;;11.63;10.93;;;;;;;7.81;77.82;91633.28;5046900;28;20187;-74
2023/12/23 09:38:34;;;;;;;10.70;9.90;;;;;;;7.46;80.48;91649.41;5048967;28;20229;-75
2023/12/23 09:40:59;;;;;;;12.43;11.53;;;;;;;7.06;81.80;91645.59;5049028;28;20252;-75
2023/12/23 09:43:25;;;;;;;11.73;11.10;;;;;;;6.86;82.20;91639.88;5058019;28;20221;-74
2023/12/23 09:45:52;;;;;;;11.83;11.20;;;;;;;6.88;82.52;91646.31;5064287;28;20221;-75
2023/12/23 09:48:18;;;;;;;11.17;10.67;;;;;;;6.91;81.96;91673.56;5079989;28;20229;-74
2023/12/23 09:50:44;;;;;;;12.47;11.70;;;;;;;6.41;83.90;91701.59;5057064;28;20195;-75
2023/12/23 09:53:12;;;;;;;10.43;9.87;;;;;;;6.37;85.01;91728.34;5069224;28;20823;-74
2023/12/23 09:55:39;;;;;;;11.17;10.67;;;;;;;6.20;85.92;91744.31;5071237;28;20197;-74
2023/12/23 09:58:05;;;;;;;10.83;10.33;;;;;;;5.93;88.42;91720.69;5065655;28;20229;-74
2023/12/23 10:00:31;;;;;;;11.13;10.63;;;;;;;5.71;90.63;91717.72;5068595;28;20181;-73
2023/12/23 10:02:56;;;;;;;10.57;10.13;;;;;;;5.40;92.95;91733.75;5068016;28;20897;-73
2023/12/23 10:05:22;;;;;;;10.83;10.30;;;;;;;5.43;94.44;91720.28;5067675;28;20232;-74
2023/12/23 10:07:47;;;;;;;10.97;10.47;;;;;;;5.25;96.17;91728.66;5061475;28;20285;-74
2023/12/23 10:10:12;;;;;;;11.37;10.77;;;;;;;5.12;96.76;91745.53;5068125;28;20186;-74
2023/12/23 10:12:38;;;;;;;11.80;11.10;;;;;;;5.18;97.52;91728.97;5071579;28;20225;-75
2023/12/23 10:15:04;;;;;;;11.67;10.83;;;;;;;5.52;97.32;91726.41;5070977;28;20186;-74
2023/12/23 10:17:31;;;;;;;11.33;10.73;;;;;;;5.45;96.99;91733.72;5062657;28;20223;-74
2023/12/23 10:19:57;;;;;;;10.63;10.23;;;;;;;5.22;97.76;91770.56;5065953;28;20480;-74
2023/12/23 10:22:23;;;;;;;10.70;10.00;;;;;;;5.05;98.88;91776.09;5070985;28;20229;-73
2023/12/23 10:24:48;;;;;;;10.73;10.27;;;;;;;5.07;99.15;91784.38;5066005;28;20632;-74
2023/12/23 10:27:15;;;;;;;11.13;10.63;;;;;;;4.92;99.98;91792.16;5062861;28;20233;-73
2023/12/23 10:29:43;;;;;;;10.80;10.20;;;;;;;5.04;99.84;91799.63;5051003;28;20212;-73
2023/12/23 10:32:12;;;;;;;10.80;10.30;;;;;;;5.20;99.06;91801.13;5053124;28;20289;-74
2023/12/23 10:34:50;;;;;;;11.33;10.83;;;;;;;5.32;97.95;91806.75;5052904;28;20194;-73
2023/12/23 10:37:16;;;;;;;10.43;9.93;;;;;;;5.10;97.74;91806.34;5062525;28;20229;-74
2023/12/23 10:39:50;;;;;;;11.80;11.20;;;;;;;5.40;97.95;91798.44;5071070;28;20173;-74
2023/12/23 10:42:22;;;;;;;10.97;10.37;;;;;;;5.17;95.98;91799.09;5071321;28;20297;-74
2023/12/23 10:44:49;;;;;;;11.63;11.03;;;;;;;5.10;96.34;91827.81;5070276;28;20189;-73
2023/12/23 10:47:15;;;;;;;10.87;10.37;;;;;;;4.95;96.95;91825.25;5056746;28;20247;-73
2023/12/23 10:49:44;;;;;;;10.93;10.43;;;;;;;5.05;97.28;91832.22;5065887;28;20181;-74
2023/12/23 10:52:11;;;;;;;11.83;11.23;;;;;;;4.98;97.30;91835.84;5062935;28;20247;-75
2023/12/23 10:54:36;;;;;;;9.50;9.10;;;;;;;4.95;97.37;91846.72;5060596;28;20200;-74
2023/12/23 10:57:02;;;;;;;10.77;10.27;;;;;;;5.02;97.04;91838.69;5066231;28;20217;-73
2023/12/23 10:59:28;;;;;;;11.07;10.57;;;;;;;4.89;97.48;91823.72;5082579;28;20245;-74
2023/12/23 11:01:56;;;;;;;11.70;11.17;;;;;;;5.08;96.80;91814.34;5063351;28;20209;-74
2023/12/23 11:04:25;;;;;;;11.20;10.63;;;;;;;5.10;97.00;91829.63;5069887;28;20208;-73
2023/12/23 11:06:55;;;;;;;10.47;10.00;;;;;;;5.22;96.61;91838.63;5068796;28;20275;-73
2023/12/23 11:09:23;;;;;;;11.67;11.07;;;;;;;5.28;96.36;91829.00;5070439;28;20182;-74
2023/12/23 11:11:49;;;;;;;11.63;10.93;;;;;;;5.26;95.45;91807.81;5068791;28;20233;-74
2023/12/23 11:14:14;;;;;;;10.80;10.30;;;;;;;5.58;92.81;91810.75;5070732;28;20189;-74
2023/12/23 11:16:39;;;;;;;10.37;9.97;;;;;;;5.88;92.66;91821.72;5070085;28;20689;-74
2023/12/23 11:19:05;;;;;;;12.30;11.60;;;;;;;5.93;91.01;91820.97;5070333;28;20189;-73
2023/12/23 11:21:31;;;;;;;11.43;10.80;;;;;;;6.23;90.44;91818.13;5062007;28;20222;-74
2023/12/23 11:23:58;;;;;;;11.20;10.60;;;;;;;5.81;89.48;91826.44;5070619;28;20174;-74
2023/12/23 11:26:37;;;;;;;10.63;10.03;;;;;;;5.88;89.69;91823.56;5068448;28;20243;-74